Time;durP1;ratioP1;P1;durP2;ratioP2;P2;SDS_P1;SDS_P2;PMS_P1;PMS_P2;Temp;Humidity;BMP_temperature;BMP_pressure;BME280_temperature;BME280_humidity;BME280_pressure;Samples;Min_cycle;Max_cycle;Signal;HPM_P1;HPM_P2
2021/10/03 00:00:00;;;;;;;1.30;0.90;;;13.10;1.40;;;14.15;99.58;94811.75;646686;216;42247;-72
2021/10/03 00:02:42;;;;;;;1.30;0.90;;;13.10;1.40;;;14.13;99.41;94809.66;646492;216;41147;-71
2021/10/03 00:05:24;;;;;;;0.88;0.60;;;13.10;1.40;;;14.17;98.54;94810.83;647116;212;33586;-71
2021/10/03 00:08:07;;;;;;;0.40;0.40;;;13.10;1.40;;;14.20;97.61;94809.38;645812;212;42542;-71
2021/10/03 00:10:48;;;;;;;0.90;0.80;;;13.20;1.40;;;14.20;97.63;94803.73;646957;216;42129;-71
2021/10/03 00:13:29;;;;;;;1.23;1.05;;;13.20;1.40;;;14.17;97.07;94810.55;619890;226;36852;-72
2021/10/03 00:16:11;;;;;;;0.90;0.70;;;13.10;1.40;;;14.21;96.47;94808.97;646322;212;31525;-72
2021/10/03 00:18:52;;;;;;;1.15;0.80;;;13.20;1.40;;;14.32;95.14;94804.02;646070;212;35512;-71
2021/10/03 00:21:34;;;;;;;2.47;0.90;;;13.30;1.40;;;14.24;95.54;94805.69;646452;216;31589;-71
2021/10/03 00:24:16;;;;;;;0.75;0.70;;;13.20;1.40;;;14.22;95.52;94802.11;646873;212;38920;-71
2021/10/03 00:26:57;;;;;;;0.68;0.68;;;13.10;1.40;;;14.27;94.72;94799.94;620762;222;31859;-72
2021/10/03 00:29:39;;;;;;;0.70;0.60;;;13.20;1.40;;;14.31;94.08;94797.05;648094;216;35475;-72
2021/10/03 00:32:21;;;;;;;1.10;0.70;;;13.20;1.40;;;14.21;94.08;94792.00;646835;216;31506;-72
2021/10/03 00:35:51;;;;;;;0.80;0.60;;;13.10;1.40;;;14.26;93.22;94793.30;647455;212;31532;-71
2021/10/03 00:38:32;;;;;;;1.02;0.77;;;13.20;1.40;;;14.24;93.04;94789.85;646273;212;31490;-71
2021/10/03 00:41:14;;;;;;;1.17;0.85;;;13.20;1.40;;;14.22;92.90;94787.19;641621;216;41467;-71
2021/10/03 00:43:56;;;;;;;0.88;0.60;;;13.20;1.40;;;14.16;92.98;94785.84;646707;212;32231;-72
2021/10/03 00:49:12;;;;;;;1.10;0.60;;;13.20;1.40;;;14.20;91.90;94779.52;645287;213;31473;-72
2021/10/03 00:51:57;;;;;;;0.60;0.50;;;13.20;1.40;;;14.19;92.00;94768.14;646392;216;42758;-72
2021/10/03 00:54:39;;;;;;;0.80;0.80;;;13.20;1.40;;;14.21;91.18;94763.83;647389;212;33273;-71
2021/10/03 00:57:21;;;;;;;0.90;0.60;;;13.20;1.40;;;14.20;91.02;94763.28;645217;212;42855;-72
2021/10/03 01:00:02;;;;;;;0.80;0.60;;;13.20;1.40;;;14.19;90.70;94770.11;619189;222;43057;-71
2021/10/03 01:02:44;;;;;;;0.80;0.60;;;13.10;1.40;;;14.20;90.26;94763.62;647305;216;31749;-72
2021/10/03 01:05:26;;;;;;;1.87;0.80;;;13.10;1.40;;;14.19;90.22;94770.02;647033;212;31531;-73
2021/10/03 01:08:07;;;;;;;1.20;0.90;;;13.10;1.40;;;14.15;90.13;94767.95;619033;226;42776;-73
2021/10/03 01:10:49;;;;;;;1.40;1.10;;;13.10;1.40;;;14.19;89.58;94763.08;647326;216;37462;-71
2021/10/03 01:13:33;;;;;;;1.10;0.50;;;13.10;1.40;;;14.22;89.16;94762.23;646701;216;42788;-71
2021/10/03 01:16:15;;;;;;;0.73;0.70;;;13.20;1.40;;;14.28;88.60;94764.73;646962;216;43369;-70
2021/10/03 01:19:00;;;;;;;0.75;0.65;;;13.20;1.40;;;14.24;88.85;94759.26;647096;216;31502;-70
2021/10/03 01:21:42;;;;;;;1.10;0.80;;;13.10;1.40;;;14.19;88.71;94757.80;618591;222;31820;-71
2021/10/03 01:24:23;;;;;;;0.98;0.70;;;13.00;1.40;;;14.20;88.51;94756.42;646398;216;42165;-72
2021/10/03 01:27:08;;;;;;;1.20;1.05;;;13.10;1.40;;;14.18;88.51;94751.86;646460;216;42483;-71
2021/10/03 01:29:50;;;;;;;0.70;0.70;;;13.00;1.40;;;14.13;88.65;94753.77;646481;212;31476;-71
2021/10/03 01:32:34;;;;;;;1.10;0.70;;;12.90;1.40;;;14.03;88.97;94755.50;646992;212;42147;-79
2021/10/03 01:35:51;;;;;;;1.90;0.80;;;12.80;1.40;;;14.07;88.36;94747.52;646818;216;31559;-71
2021/10/03 01:38:33;;;;;;;2.10;0.90;;;12.90;1.40;;;14.23;87.14;94746.09;646689;212;42175;-72
2021/10/03 01:41:18;;;;;;;0.60;0.60;;;13.20;1.40;;;14.30;86.40;94740.48;642974;216;31680;-71
2021/10/03 01:44:00;;;;;;;1.40;0.73;;;13.30;1.40;;;14.44;85.21;94735.63;645693;216;31546;-71
2021/10/03 01:46:44;;;;;;;1.05;0.90;;;13.50;1.40;;;14.51;84.44;94728.37;646599;216;42873;-70
2021/10/03 01:49:27;;;;;;;0.70;0.70;;;13.50;1.40;;;14.43;84.62;94730.18;646668;216;42665;-71
2021/10/03 01:52:10;;;;;;;1.70;0.75;;;13.40;1.40;;;14.56;83.40;94724.50;645793;213;31497;-72
2021/10/03 01:54:52;;;;;;;0.80;0.60;;;13.60;1.40;;;14.58;82.97;94724.22;646721;212;42096;-71
2021/10/03 01:57:33;;;;;;;1.10;0.60;;;13.60;1.40;;;14.61;82.44;94726.00;646430;216;34729;-71
2021/10/03 02:00:18;;;;;;;0.90;0.70;;;13.60;1.40;;;14.52;83.13;94719.41;645994;216;42138;-71
2021/10/03 02:03:00;;;;;;;0.60;0.60;;;13.50;1.40;;;14.54;82.63;94721.95;647249;216;42111;-71
2021/10/03 02:05:41;;;;;;;1.30;0.70;;;13.50;1.40;;;14.55;82.35;94720.86;646843;212;42306;-71
2021/10/03 02:10:57;;;;;;;1.20;0.77;;;13.50;1.40;;;14.65;80.96;94717.55;646210;216;42149;-71
2021/10/03 02:13:42;;;;;;;1.08;0.60;;;13.70;1.40;;;14.58;81.37;94718.86;645431;216;42109;-71
2021/10/03 02:16:23;;;;;;;1.08;0.75;;;13.50;1.40;;;14.46;82.59;94711.05;647608;216;31519;-72
2021/10/03 02:19:05;;;;;;;1.52;0.77;;;13.30;1.40;;;14.54;81.38;94713.24;618951;226;42996;-71
2021/10/03 02:21:48;;;;;;;0.90;0.60;;;13.50;1.40;;;14.62;80.68;94712.70;645341;212;31533;-71
2021/10/03 02:24:29;;;;;;;1.00;0.70;;;13.60;1.40;;;14.61;80.63;94708.81;647119;216;31492;-72
2021/10/03 02:27:10;;;;;;;0.80;0.60;;;13.60;1.40;;;14.54;81.61;94707.88;646908;212;42304;-72
2021/10/03 02:29:52;;;;;;;2.10;0.60;;;13.40;1.40;;;14.56;80.66;94703.42;646190;212;31551;-72
2021/10/03 02:32:34;;;;;;;1.00;0.70;;;13.40;1.40;;;14.33;82.33;94700.40;646115;216;31487;-71
2021/10/03 02:35:52;;;;;;;0.50;0.50;;;13.20;1.40;;;14.29;82.39;94703.42;645577;212;31829;-72
2021/10/03 02:38:33;;;;;;;0.70;0.47;;;13.20;1.40;;;14.34;81.47;94700.37;647750;216;42463;-72
2021/10/03 02:41:15;;;;;;;1.08;0.70;;;13.40;1.40;;;14.42;80.74;94700.86;643444;216;42326;-73
2021/10/03 02:43:57;;;;;;;0.60;0.60;;;13.40;1.40;;;14.32;81.42;94699.50;644828;212;43421;-72
2021/10/03 02:46:38;;;;;;;0.90;0.60;;;13.20;1.40;;;14.19;82.38;94700.62;647379;216;42170;-72
2021/10/03 02:49:20;;;;;;;0.90;0.52;;;13.10;1.40;;;14.14;82.64;94698.64;646309;212;42100;-71
2021/10/03 02:52:02;;;;;;;0.73;0.70;;;13.10;1.40;;;14.08;82.97;94691.95;646141;212;35392;-71
2021/10/03 02:54:46;;;;;;;0.75;0.70;;;13.00;1.40;;;14.03;83.02;94694.50;647212;212;42193;-72
2021/10/03 02:57:28;;;;;;;0.60;0.60;;;13.00;1.40;;;14.04;82.37;94688.41;647882;212;32839;-71
2021/10/03 03:00:11;;;;;;;1.70;0.95;;;13.00;1.40;;;14.05;82.07;94686.01;645125;216;31515;-72
2021/10/03 03:05:28;;;;;;;1.05;0.95;;;12.90;1.40;;;13.96;82.21;94679.69;646460;212;31473;-72
2021/10/03 03:08:09;;;;;;;1.00;0.80;;;12.80;1.40;;;13.83;83.18;94680.32;646009;212;31609;-71
2021/10/03 03:10:51;;;;;;;1.30;0.50;;;12.70;1.40;;;13.83;82.91;94680.44;646582;216;32942;-72
2021/10/03 03:13:33;;;;;;;0.73;0.70;;;12.60;1.40;;;13.72;83.72;94683.07;618377;222;42526;-71
2021/10/03 03:18:52;;;;;;;0.70;0.70;;;12.60;1.40;;;13.62;84.01;94681.33;646567;212;31442;-70
2021/10/03 03:21:34;;;;;;;0.80;0.60;;;12.40;1.40;;;13.59;83.80;94679.59;646522;216;35397;-72
2021/10/03 03:24:19;;;;;;;0.65;0.60;;;12.40;1.40;;;13.61;83.42;94675.27;646017;216;31545;-72
2021/10/03 03:27:00;;;;;;;1.30;0.80;;;12.50;1.40;;;13.65;83.10;94672.44;647030;216;32067;-71
2021/10/03 03:29:42;;;;;;;2.80;0.85;;;12.50;1.40;;;13.64;82.65;94669.41;647008;212;33229;-71
2021/10/03 03:32:23;;;;;;;0.90;0.60;;;12.50;1.40;;;13.70;82.17;94666.27;644433;216;32675;-71
2021/10/03 03:35:50;;;;;;;0.70;0.70;;;12.70;1.40;;;13.97;79.17;94665.06;647775;212;31561;-72
2021/10/03 03:38:35;;;;;;;0.70;0.60;;;12.90;1.40;;;14.07;78.49;94666.80;646723;212;31505;-71
2021/10/03 03:41:14;;;;;;;1.87;0.50;;;13.10;1.40;;;14.07;79.07;94666.84;642420;212;40115;-71
2021/10/03 03:43:55;;;;;;;0.80;0.70;;;12.90;1.40;;;14.05;78.19;94660.33;619151;222;32491;-71
2021/10/03 03:46:37;;;;;;;0.60;0.50;;;12.90;1.40;;;14.18;77.21;94665.70;645314;216;31675;-71
2021/10/03 03:49:19;;;;;;;1.40;0.60;;;13.20;1.40;;;14.26;76.44;94662.95;646840;212;42704;-71
2021/10/03 03:52:00;;;;;;;0.60;0.60;;;13.20;1.40;;;14.10;77.53;94659.33;619141;226;37188;-71
2021/10/03 03:54:42;;;;;;;1.40;0.70;;;12.90;1.40;;;14.02;78.31;94661.17;647008;212;31479;-72
2021/10/03 03:57:24;;;;;;;1.17;0.70;;;12.70;1.40;;;14.05;77.61;94656.65;642543;218;42254;-72
2021/10/03 04:00:07;;;;;;;1.55;0.60;;;12.90;1.40;;;13.98;78.21;94656.56;647790;212;38216;-72
2021/10/03 04:02:48;;;;;;;0.90;0.80;;;12.80;1.40;;;14.10;76.33;94649.52;645986;216;32056;-72
2021/10/03 04:05:30;;;;;;;0.70;0.70;;;13.10;1.40;;;14.22;75.65;94653.00;646963;216;42779;-74
2021/10/03 04:08:12;;;;;;;0.65;0.62;;;13.10;1.40;;;14.15;76.07;94652.31;647283;216;40452;-71
2021/10/03 04:10:53;;;;;;;0.75;0.50;;;13.00;1.40;;;14.25;75.09;94646.55;645975;212;31630;-71
2021/10/03 04:13:35;;;;;;;0.80;0.60;;;13.10;1.40;;;14.20;75.24;94647.42;646577;216;42125;-72
2021/10/03 04:16:17;;;;;;;1.10;0.60;;;13.00;1.40;;;14.12;76.21;94647.85;646675;216;33453;-71
2021/10/03 04:18:59;;;;;;;1.12;0.60;;;12.90;1.40;;;14.25;74.60;94647.61;645194;216;32339;-71
2021/10/03 04:21:40;;;;;;;1.33;0.93;;;13.20;1.40;;;14.24;74.60;94643.27;620611;222;31875;-70
2021/10/03 04:24:25;;;;;;;0.73;0.52;;;13.10;1.40;;;14.15;75.63;94643.55;646670;216;35804;-72
2021/10/03 04:27:07;;;;;;;1.10;0.68;;;13.00;1.40;;;14.19;74.37;94643.29;645906;216;31574;-72
2021/10/03 04:29:48;;;;;;;0.93;0.77;;;12.90;1.40;;;14.19;74.50;94641.25;646767;216;42127;-71
2021/10/03 04:32:36;;;;;;;0.60;0.57;;;13.10;1.40;;;14.20;74.13;94645.67;646946;216;31513;-72
2021/10/03 04:38:25;;;;;;;1.23;0.80;;;12.90;1.40;;;14.13;74.86;94644.99;647008;212;42187;-71
2021/10/03 04:41:07;;;;;;;0.60;0.50;;;12.90;1.40;;;14.27;73.74;94643.05;643167;212;31748;-72
2021/10/03 04:43:51;;;;;;;0.80;0.60;;;13.10;1.40;;;14.24;74.04;94646.22;645676;216;31489;-73
2021/10/03 04:46:33;;;;;;;0.50;0.40;;;13.10;1.40;;;14.27;74.15;94644.72;646509;212;42233;-71
2021/10/03 04:49:15;;;;;;;0.93;0.50;;;13.10;1.40;;;14.17;74.15;94643.98;645996;212;42473;-72
2021/10/03 04:51:56;;;;;;;0.65;0.50;;;12.90;1.40;;;14.13;74.58;94649.25;646464;213;31745;-72
2021/10/03 04:54:38;;;;;;;0.75;0.50;;;12.90;1.40;;;14.15;74.46;94644.46;647464;216;42212;-72
2021/10/03 04:59:57;;;;;;;0.70;0.60;;;13.00;1.40;;;14.30;73.26;94649.84;618204;226;32072;-72
2021/10/03 05:02:39;;;;;;;1.83;0.90;;;13.30;1.40;;;14.34;73.08;94652.14;619385;222;42463;-71
2021/10/03 05:05:21;;;;;;;0.70;0.40;;;13.30;1.40;;;14.22;73.90;94651.48;645065;212;31470;-71
2021/10/03 05:08:02;;;;;;;1.30;0.90;;;13.00;1.40;;;14.16;74.71;94653.50;647245;216;41665;-72
2021/10/03 05:10:47;;;;;;;1.25;0.60;;;12.90;1.40;;;14.19;73.99;94654.58;648253;216;42107;-73
2021/10/03 05:13:29;;;;;;;1.20;0.90;;;13.00;1.40;;;14.31;73.49;94659.38;646463;216;40632;-71
2021/10/03 05:16:10;;;;;;;0.80;0.60;;;13.20;1.40;;;14.32;73.40;94651.77;647246;213;31553;-71
2021/10/03 05:18:52;;;;;;;0.90;0.60;;;13.20;1.40;;;14.37;73.36;94659.64;646763;212;31693;-72
2021/10/03 05:21:34;;;;;;;1.10;0.80;;;13.30;1.40;;;14.45;72.72;94652.98;645695;216;42110;-72
2021/10/03 05:24:15;;;;;;;1.45;0.98;;;13.40;1.40;;;14.29;75.00;94650.33;646452;212;42127;-71
2021/10/03 05:27:00;;;;;;;0.70;0.70;;;13.00;1.40;;;14.17;75.50;94653.05;642369;217;31655;-72
2021/10/03 05:29:42;;;;;;;1.30;0.60;;;12.70;1.40;;;13.91;78.30;94659.89;646058;212;42125;-72
2021/10/03 05:32:26;;;;;;;0.80;0.52;;;12.20;1.40;;;13.70;80.32;94653.06;646841;212;31517;-72
2021/10/03 05:35:51;;;;;;;1.33;0.75;;;11.80;1.40;;;13.48;82.28;94649.94;648046;212;31548;-71
2021/10/03 05:38:33;;;;;;;0.93;0.70;;;11.70;1.40;;;13.41;82.74;94648.88;646080;216;31514;-72
2021/10/03 05:41:15;;;;;;;1.23;0.60;;;11.70;1.40;;;13.50;81.24;94648.98;643115;216;39731;-72
2021/10/03 05:43:56;;;;;;;0.77;0.70;;;11.90;1.40;;;13.54;81.15;94639.03;646224;212;31490;-72
2021/10/03 05:46:38;;;;;;;0.95;0.60;;;12.00;1.40;;;13.74;78.97;94634.46;647173;212;41221;-71
2021/10/03 05:51:54;;;;;;;0.85;0.80;;;12.60;1.40;;;13.93;79.56;94629.48;645265;212;31778;-72
2021/10/03 05:54:36;;;;;;;0.90;0.50;;;12.60;1.40;;;14.09;77.33;94634.05;647342;216;31493;-72
2021/10/03 05:57:18;;;;;;;1.08;0.60;;;12.70;1.40;;;14.14;77.76;94633.50;646333;216;36219;-71
2021/10/03 05:59:59;;;;;;;1.10;0.60;;;12.90;1.40;;;14.29;77.06;94631.68;646215;212;31605;-72
2021/10/03 06:02:41;;;;;;;1.30;0.60;;;13.00;1.40;;;14.35;76.34;94630.22;619000;226;41021;-72
2021/10/03 06:05:22;;;;;;;3.17;0.55;;;13.10;1.40;;;14.61;74.80;94622.67;646645;216;42161;-72
2021/10/03 06:08:04;;;;;;;0.70;0.50;;;13.50;1.40;;;14.80;73.68;94621.34;646108;216;37207;-72
2021/10/03 06:10:46;;;;;;;0.50;0.50;;;13.80;1.40;;;15.05;72.23;94634.19;619091;222;32663;-72
2021/10/03 06:13:28;;;;;;;0.80;0.65;;;14.00;1.40;;;15.09;72.45;94628.66;645136;216;31595;-72
2021/10/03 06:16:10;;;;;;;1.10;0.80;;;13.90;1.40;;;15.35;70.66;94627.26;646396;216;42619;-71
2021/10/03 06:18:54;;;;;;;0.82;0.60;;;14.30;1.40;;;15.57;68.96;94627.28;647821;216;31489;-70
2021/10/03 06:21:36;;;;;;;0.60;0.45;;;14.60;1.40;;;15.70;69.60;94625.43;646954;216;31509;-71
2021/10/03 06:24:18;;;;;;;1.27;1.08;;;14.70;1.40;;;15.79;69.00;94621.07;645063;216;31498;-71
2021/10/03 06:27:02;;;;;;;0.70;0.60;;;14.70;1.40;;;16.00;68.03;94620.09;646307;212;31678;-71
2021/10/03 06:29:45;;;;;;;2.20;0.60;;;14.90;1.40;;;16.09;68.03;94615.77;646135;212;31554;-71
2021/10/03 06:32:29;;;;;;;1.77;0.85;;;14.90;1.40;;;16.12;68.44;94621.58;646789;216;31879;-71
2021/10/03 06:35:53;;;;;;;1.00;0.60;;;15.00;1.40;;;16.39;65.79;94631.96;647175;216;31581;-73
2021/10/03 06:38:37;;;;;;;1.20;0.70;;;15.40;1.40;;;16.53;65.78;94627.34;646512;212;32626;-70
2021/10/03 06:41:19;;;;;;;1.70;1.00;;;15.40;1.40;;;16.69;66.03;94628.80;642849;212;42423;-71
2021/10/03 06:44:04;;;;;;;0.93;0.70;;;15.50;1.40;;;16.78;65.73;94628.49;645769;212;31524;-71
2021/10/03 06:46:46;;;;;;;1.10;0.73;;;15.60;1.40;;;16.93;64.45;94635.70;646460;212;31487;-72
2021/10/03 06:49:28;;;;;;;1.62;0.90;;;15.90;1.40;;;17.07;64.56;94627.65;646030;216;32153;-72
2021/10/03 06:52:09;;;;;;;0.73;0.68;;;15.90;1.40;;;17.21;64.37;94622.44;646060;212;32065;-70
2021/10/03 06:54:54;;;;;;;1.40;0.70;;;16.10;1.40;;;17.33;62.50;94623.69;644922;213;32154;-71
2021/10/03 06:57:36;;;;;;;1.30;0.70;;;16.20;1.40;;;17.40;63.46;94622.36;647584;213;31623;-70
2021/10/03 07:00:17;;;;;;;0.80;0.70;;;16.30;1.40;;;17.51;63.04;94620.20;646065;216;31629;-71
2021/10/03 07:02:59;;;;;;;1.65;0.90;;;16.50;1.40;;;17.60;62.70;94618.84;619104;226;32478;-72
2021/10/03 07:05:41;;;;;;;1.25;0.98;;;16.50;1.40;;;17.71;62.24;94619.34;646138;213;32048;-71
2021/10/03 07:08:23;;;;;;;1.77;0.80;;;16.60;1.40;;;17.81;61.02;94617.89;646898;212;31725;-71
2021/10/03 07:11:04;;;;;;;1.10;0.50;;;16.70;1.40;;;17.95;60.28;94620.20;646559;216;31839;-72
2021/10/03 07:13:46;;;;;;;0.80;0.70;;;16.90;1.40;;;18.14;60.80;94620.03;646728;212;31503;-71
2021/10/03 07:16:28;;;;;;;1.17;0.70;;;17.10;1.40;;;18.28;61.01;94617.52;646835;216;31489;-72
2021/10/03 07:19:09;;;;;;;1.50;0.90;;;17.20;1.40;;;18.43;58.77;94616.22;645822;212;31486;-71
2021/10/03 07:21:51;;;;;;;0.90;0.80;;;17.40;1.40;;;18.56;57.88;94619.02;646563;216;31589;-72
2021/10/03 07:24:33;;;;;;;1.50;0.70;;;17.60;1.40;;;18.70;57.59;94617.33;645461;216;31524;-71
2021/10/03 07:27:14;;;;;;;1.30;0.70;;;17.70;1.40;;;18.79;57.13;94619.25;647377;216;32176;-71
2021/10/03 07:29:56;;;;;;;0.65;0.65;;;17.80;1.40;;;18.83;57.03;94619.41;619082;222;31842;-70
2021/10/03 07:32:41;;;;;;;0.80;0.62;;;17.70;1.40;;;18.85;56.63;94622.76;646425;216;31650;-70
2021/10/03 07:35:52;;;;;;;1.70;0.90;;;17.80;1.40;;;18.97;56.03;94621.06;635176;217;31877;-70
2021/10/03 07:38:34;;;;;;;0.80;0.70;;;17.90;1.40;;;19.06;54.87;94626.00;646210;212;31535;-71
2021/10/03 07:41:16;;;;;;;0.88;0.65;;;18.10;1.40;;;19.16;55.29;94630.46;640655;216;31660;-70
2021/10/03 07:43:57;;;;;;;4.62;3.17;;;18.20;1.40;;;19.38;55.91;94634.48;647251;216;31628;-70
2021/10/03 07:46:39;;;;;;;1.35;0.88;;;18.30;1.40;;;19.51;55.22;94635.14;647730;216;31686;-71
2021/10/03 07:49:21;;;;;;;1.10;0.80;;;18.50;1.40;;;19.57;54.14;94640.13;645158;212;31500;-72
2021/10/03 07:52:03;;;;;;;2.62;0.82;;;18.60;1.40;;;19.71;54.48;94641.66;647774;216;31471;-70
2021/10/03 07:54:44;;;;;;;1.45;0.85;;;18.70;1.40;;;19.87;54.84;94642.37;645653;216;31465;-71
2021/10/03 07:57:29;;;;;;;1.52;0.88;;;18.80;1.40;;;19.93;53.85;94643.45;643752;218;32057;-72
2021/10/03 08:00:11;;;;;;;1.50;0.80;;;18.90;1.40;;;20.14;53.99;94644.61;648126;212;32635;-71
2021/10/03 08:02:53;;;;;;;0.85;0.60;;;19.00;1.40;;;20.23;53.77;94642.91;647213;216;31448;-71
2021/10/03 08:05:35;;;;;;;0.73;0.70;;;19.10;1.40;;;20.31;52.25;94644.90;631103;222;31655;-71
2021/10/03 08:08:16;;;;;;;1.90;1.00;;;19.30;1.40;;;20.46;53.04;94641.09;646531;216;31533;-71
2021/10/03 08:10:58;;;;;;;0.98;0.77;;;19.40;1.40;;;20.67;53.65;94639.77;618765;226;42550;-71
2021/10/03 08:13:40;;;;;;;0.90;0.70;;;19.50;1.40;;;20.72;52.68;94639.98;646992;212;31622;-71
2021/10/03 08:16:22;;;;;;;1.08;0.77;;;19.70;1.40;;;20.93;52.09;94636.09;646766;215;31544;-71
2021/10/03 08:19:03;;;;;;;0.80;0.65;;;19.80;1.40;;;21.04;51.67;94641.13;646925;212;31472;-72
2021/10/03 08:21:45;;;;;;;0.90;0.77;;;20.00;1.40;;;21.10;51.14;94644.56;646964;216;31538;-71
2021/10/03 08:24:27;;;;;;;1.47;0.70;;;20.00;1.40;;;21.32;50.82;94648.85;646012;212;31526;-72
2021/10/03 08:27:09;;;;;;;1.00;0.77;;;20.20;1.40;;;21.49;51.46;94646.03;646033;216;31490;-71
2021/10/03 08:29:50;;;;;;;1.42;0.88;;;20.30;1.40;;;21.46;50.55;94641.56;647032;212;42088;-73
2021/10/03 08:32:32;;;;;;;2.33;1.50;;;20.30;1.40;;;21.66;50.61;94631.09;647231;212;31501;-72
2021/10/03 08:35:50;;;;;;;1.20;0.70;;;20.50;1.40;;;21.63;50.61;94634.81;646408;212;31594;-72
2021/10/03 08:38:35;;;;;;;1.50;0.70;;;20.60;1.40;;;21.88;50.90;94633.45;646826;212;31543;-71
2021/10/03 08:41:17;;;;;;;1.40;0.77;;;20.80;1.40;;;21.88;50.00;94632.06;641966;212;31973;-71
2021/10/03 08:43:58;;;;;;;2.40;0.83;;;20.80;1.40;;;21.92;49.42;94632.82;645183;212;31546;-70
2021/10/03 08:46:43;;;;;;;0.90;0.80;;;20.90;1.40;;;22.51;50.94;94633.67;647351;216;31475;-71
2021/10/03 08:49:25;;;;;;;1.27;0.70;;;21.70;1.40;;;24.39;48.08;94629.48;646873;216;31599;-72
2021/10/03 08:52:07;;;;;;;0.93;0.77;;;25.10;1.40;;;26.56;45.75;94628.60;646431;216;31636;-72
2021/10/03 08:54:51;;;;;;;2.83;1.00;;;27.60;1.40;;;27.32;43.06;94630.44;646711;216;31502;-71
2021/10/03 08:57:33;;;;;;;1.15;0.80;;;27.20;1.40;;;27.17;41.64;94629.64;645479;216;31528;-71
2021/10/03 09:00:17;;;;;;;1.52;1.00;;;26.60;1.40;;;27.50;40.98;94629.53;646070;212;31490;-71
2021/10/03 09:03:04;;;;;;;1.92;1.65;;;25.70;1.40;;;26.78;41.24;94631.31;646580;216;42173;-72
2021/10/03 09:05:48;;;;;;;0.95;0.90;;;25.80;1.40;;;27.73;39.19;94629.22;645987;212;31470;-71
2021/10/03 09:08:31;;;;;;;0.80;0.80;;;26.80;1.40;;;28.41;40.69;94629.70;647153;212;31511;-72
2021/10/03 09:11:13;;;;;;;1.08;0.80;;;27.70;1.40;;;28.79;37.60;94625.81;645639;212;31510;-72
2021/10/03 09:13:55;;;;;;;0.97;0.70;;;27.80;1.40;;;28.37;37.19;94621.93;647077;216;31548;-72
2021/10/03 09:16:37;;;;;;;1.20;0.80;;;26.60;1.40;;;29.00;40.03;94618.68;646818;216;31537;-73
2021/10/03 09:19:18;;;;;;;1.10;0.90;;;27.80;1.40;;;30.08;38.15;94618.27;646409;216;31649;-73
2021/10/03 09:22:00;;;;;;;2.00;0.80;;;28.80;1.40;;;30.03;33.37;94621.75;646796;212;31828;-72
2021/10/03 09:24:45;;;;;;;2.20;1.10;;;28.40;1.40;;;30.67;36.10;94622.95;646089;212;31509;-72
2021/10/03 09:27:47;;;;;;;1.70;0.70;;;29.00;1.40;;;29.95;34.15;94623.59;647585;212;31561;-72
2021/10/03 09:30:32;;;;;;;0.80;0.80;;;28.40;1.40;;;29.07;35.16;94628.52;647833;212;31857;-71
2021/10/03 09:35:56;;;;;;;1.30;1.00;;;28.50;1.40;;;29.11;34.68;94613.91;646366;216;42808;-71
2021/10/03 09:38:43;;;;;;;1.87;0.90;;;27.70;1.40;;;29.75;33.77;94618.13;646517;212;31594;-72
2021/10/03 09:41:26;;;;;;;1.05;0.88;;;28.00;1.40;;;30.48;32.53;94615.88;641604;212;31847;-72
2021/10/03 09:44:16;;;;;;;1.00;0.90;;;29.50;1.40;;;29.70;32.16;94620.51;618728;226;32025;-72
2021/10/03 09:47:00;;;;;;;1.50;0.90;;;28.10;1.40;;;29.87;31.72;94612.73;646931;216;32315;-72
2021/10/03 09:49:44;;;;;;;1.20;1.10;;;28.40;1.40;;;30.86;32.60;94608.55;646770;212;31582;-73
2021/10/03 09:52:31;;;;;;;1.10;0.82;;;29.20;1.40;;;30.07;31.07;94610.64;647194;216;31691;-72
2021/10/03 09:55:18;;;;;;;1.20;0.90;;;28.50;1.40;;;29.51;32.37;94617.27;646096;212;31996;-72
2021/10/03 09:57:57;;;;;;;2.45;1.30;;;26.90;1.40;;;27.93;33.60;94615.80;647488;216;31514;-72
2021/10/03 10:00:39;;;;;;;1.30;0.90;;;26.70;1.40;;;29.64;32.78;94610.15;645360;212;31531;-72
2021/10/03 10:03:21;;;;;;;1.77;1.08;;;29.30;1.40;;;30.79;30.41;94605.09;647433;212;31522;-72
2021/10/03 10:06:03;;;;;;;1.00;0.90;;;29.60;1.40;;;30.16;31.76;94610.61;646119;212;31738;-72
2021/10/03 10:08:45;;;;;;;0.93;0.70;;;28.40;1.40;;;31.18;30.98;94605.81;647596;212;31728;-72
2021/10/03 10:11:27;;;;;;;1.40;0.90;;;30.20;1.40;;;31.04;30.98;94602.83;646101;216;31725;-72
2021/10/03 10:14:09;;;;;;;1.00;0.90;;;29.90;1.40;;;31.39;30.32;94595.61;647138;212;31637;-71
2021/10/03 10:16:57;;;;;;;0.90;0.70;;;29.80;1.40;;;30.31;30.51;94598.30;645661;216;31514;-72
2021/10/03 10:19:37;;;;;;;0.90;0.80;;;28.90;1.40;;;31.18;30.24;94597.27;632251;220;31785;-72
2021/10/03 10:22:35;;;;;;;1.10;0.80;;;29.70;1.40;;;31.87;29.90;94599.47;648003;216;31560;-72
2021/10/03 10:25:17;;;;;;;1.08;0.70;;;30.00;1.40;;;33.34;27.53;94591.03;645223;216;32463;-71
2021/10/03 10:28:05;;;;;;;1.00;0.80;;;31.30;1.40;;;32.34;29.03;94595.87;618752;226;31848;-71
2021/10/03 10:31:09;;;;;;;1.25;1.00;;;30.30;1.40;;;32.04;28.89;94591.68;648276;216;31619;-71
2021/10/03 10:35:51;;;;;;;1.00;0.82;;;30.30;1.40;;;32.14;28.48;94586.41;647572;212;31616;-71
2021/10/03 10:38:32;;;;;;;1.27;0.80;;;30.20;1.40;;;33.04;28.88;94587.55;647027;212;31791;-71
2021/10/03 10:41:30;;;;;;;1.00;0.80;;;30.90;1.40;;;32.83;27.98;94593.84;641831;216;31860;-71
2021/10/03 10:44:28;;;;;;;8.77;1.58;;;30.50;1.40;;;33.45;29.38;94586.59;645396;216;31682;-70
2021/10/03 10:47:15;;;;;;;1.37;0.80;;;30.90;1.40;;;32.88;28.94;94581.47;646294;212;31553;-71
2021/10/03 10:50:03;;;;;;;1.20;1.00;;;30.00;1.40;;;30.50;28.80;94590.88;618734;226;32083;-71
2021/10/03 10:52:47;;;;;;;1.40;0.90;;;27.60;1.40;;;28.84;31.43;94582.37;646988;212;31531;-72
2021/10/03 10:55:30;;;;;;;1.27;0.90;;;27.30;1.40;;;30.59;29.78;94578.26;645588;216;31557;-71
2021/10/03 10:58:12;;;;;;;0.70;0.60;;;29.60;1.40;;;30.67;29.97;94581.13;645429;216;42528;-70
2021/10/03 11:00:58;;;;;;;0.80;0.80;;;28.90;1.40;;;31.37;30.55;94581.08;647346;216;31498;-72
2021/10/03 11:03:59;;;;;;;0.80;0.70;;;29.00;1.40;;;29.53;31.29;94579.42;645943;216;31666;-73
2021/10/03 11:06:54;;;;;;;1.00;0.90;;;28.10;1.40;;;30.08;30.86;94580.68;646692;212;32037;-72
2021/10/03 11:09:35;;;;;;;0.90;0.60;;;29.00;1.40;;;31.30;29.97;94579.55;647483;216;31732;-72
2021/10/03 11:12:17;;;;;;;0.95;0.70;;;29.90;1.40;;;32.22;28.66;94577.78;646717;212;31524;-72
2021/10/03 11:14:59;;;;;;;0.80;0.80;;;30.30;1.40;;;30.86;29.96;94576.75;645697;216;42888;-71
2021/10/03 11:17:40;;;;;;;0.98;0.90;;;29.10;1.40;;;31.90;29.57;94569.23;646447;216;42849;-71
2021/10/03 11:20:22;;;;;;;1.30;0.80;;;29.40;1.40;;;32.12;30.31;94568.48;645588;216;32242;-71
2021/10/03 11:23:03;;;;;;;1.20;0.60;;;29.80;1.40;;;29.82;31.07;94571.34;646696;216;31866;-71
2021/10/03 11:25:45;;;;;;;0.88;0.70;;;27.70;1.40;;;30.60;30.97;94571.17;646270;212;31467;-72
2021/10/03 11:31:04;;;;;;;1.10;0.80;;;29.50;1.40;;;30.07;31.26;94568.72;646357;212;31713;-71
2021/10/03 11:35:51;;;;;;;1.00;0.90;;;26.40;1.40;;;28.82;32.18;94570.56;644462;212;31733;-72
2021/10/03 11:38:33;;;;;;;1.08;0.77;;;26.90;1.40;;;29.89;32.34;94566.52;632835;217;31631;-72
2021/10/03 11:41:14;;;;;;;1.05;0.80;;;28.60;1.40;;;31.09;29.77;94572.74;642020;212;31835;-71
2021/10/03 11:43:56;;;;;;;1.00;0.80;;;29.40;1.40;;;31.31;29.90;94567.34;646401;216;31761;-72
2021/10/03 11:46:38;;;;;;;1.10;0.70;;;29.10;1.40;;;32.11;30.46;94561.50;647049;216;31604;-72
2021/10/03 11:49:23;;;;;;;3.42;2.35;;;29.90;1.40;;;33.01;28.77;94555.23;646201;212;32388;-71
2021/10/03 11:52:05;;;;;;;1.23;1.00;;;30.70;1.40;;;31.99;29.14;94552.30;645647;212;38939;-72
2021/10/03 11:54:47;;;;;;;1.00;0.70;;;30.40;1.40;;;34.15;28.18;94558.13;646454;216;42294;-71
2021/10/03 11:57:29;;;;;;;0.90;0.80;;;32.40;1.40;;;33.87;27.29;94556.40;645781;212;31563;-73
2021/10/03 12:00:13;;;;;;;1.00;0.90;;;31.60;1.40;;;32.67;28.50;94556.66;646281;212;31517;-72
2021/10/03 12:02:55;;;;;;;0.90;0.60;;;30.30;1.40;;;32.24;27.46;94554.80;646812;212;31644;-73